createdAt,value
2022-11-03T05:49:13.531Z,5.10
2022-11-03T05:51:44.617Z,5.00
2022-11-03T05:54:20.868Z,5.00
2022-11-03T05:56:49.147Z,5.00
2022-11-03T05:59:21.227Z,5.00
2022-11-03T06:01:49.718Z,5.00
2022-11-03T06:04:23.079Z,5.00
2022-11-03T06:06:54.816Z,5.00
2022-11-03T06:09:26.390Z,5.10
2022-11-03T06:11:57.657Z,5.00
2022-11-03T06:14:27.163Z,5.00
2022-11-03T06:16:58.185Z,5.10
2022-11-03T10:56:26.194Z,13.80
2022-11-03T10:58:54.730Z,13.80
2022-11-03T11:23:53.492Z,13.70
2022-11-03T11:26:42.523Z,13.80
2022-11-03T11:29:44.148Z,13.80
2022-11-03T11:39:54.100Z,14.20
2022-11-03T11:42:23.097Z,14.20
2022-11-03T12:06:55.880Z,14.50
2022-11-03T12:16:42.093Z,14.40
2022-11-03T12:19:36.158Z,14.30
2022-11-03T12:29:31.072Z,14.70
2022-11-03T12:31:59.041Z,14.70
2022-11-03T12:48:59.619Z,14.90
2022-11-03T12:58:44.720Z,14.70
2022-11-03T13:01:13.260Z,14.60
2022-11-03T13:11:29.285Z,14.50
2022-11-03T13:13:57.505Z,14.50
2022-11-03T13:16:25.472Z,14.60
2022-11-03T13:26:13.052Z,14.90
2022-11-03T13:56:22.433Z,14.40
2022-11-03T15:45:34.254Z,11.90
2022-11-03T15:48:02.387Z,11.90
2022-11-03T15:50:30.605Z,11.80
2022-11-03T15:52:58.840Z,11.80
2022-11-03T15:55:28.389Z,11.80
2022-11-03T15:57:56.299Z,11.90
2022-11-03T16:00:24.263Z,11.90
2022-11-03T16:02:53.630Z,11.90
2022-11-03T16:05:25.185Z,11.90
2022-11-03T16:07:53.392Z,11.90
2022-11-03T16:10:21.242Z,11.90
2022-11-03T16:12:49.181Z,11.80
2022-11-03T16:15:17.141Z,11.80
2022-11-03T16:17:45.817Z,11.80
2022-11-03T16:20:15.279Z,11.80
2022-11-03T16:22:43.265Z,11.80
2022-11-03T16:25:13.443Z,11.80
2022-11-03T16:27:43.797Z,11.70
2022-11-03T16:30:12.763Z,11.70
2022-11-03T16:32:41.120Z,11.70
2022-11-03T16:35:09.909Z,11.70
2022-11-03T16:37:40.561Z,11.70
2022-11-03T16:40:12.497Z,11.60
2022-11-03T16:42:44.269Z,11.60
2022-11-03T16:45:18.458Z,11.50
2022-11-03T16:47:47.189Z,11.50
2022-11-03T16:50:16.227Z,11.50
2022-11-03T16:52:48.037Z,11.40
2022-11-03T16:55:17.414Z,11.40
2022-11-03T16:57:45.882Z,11.20
2022-11-03T17:00:16.254Z,11.10
2022-11-03T17:02:44.613Z,11.10
